sensor_id;sensor_type;location;lat;lon;timestamp;temperature;humidity
56478;DHT22;42382;53.210;5.772;2022-08-01T00:00:39;18.60;91.20
56478;DHT22;42382;53.210;5.772;2022-08-01T00:03:05;18.60;91.30
56478;DHT22;42382;53.210;5.772;2022-08-01T00:05:31;18.60;91.20
56478;DHT22;42382;53.210;5.772;2022-08-01T00:07:56;18.60;91.30
56478;DHT22;42382;53.210;5.772;2022-08-01T00:10:22;18.60;91.30
56478;DHT22;42382;53.210;5.772;2022-08-01T00:12:48;18.50;91.30
56478;DHT22;42382;53.210;5.772;2022-08-01T00:15:15;18.60;91.40
56478;DHT22;42382;53.210;5.772;2022-08-01T00:17:42;18.50;91.40
56478;DHT22;42382;53.210;5.772;2022-08-01T00:20:10;18.60;91.30
56478;DHT22;42382;53.210;5.772;2022-08-01T00:22:36;18.50;91.30
56478;DHT22;42382;53.210;5.772;2022-08-01T00:25:03;18.50;91.30
56478;DHT22;42382;53.210;5.772;2022-08-01T00:27:29;18.40;91.30
56478;DHT22;42382;53.210;5.772;2022-08-01T00:29:55;18.40;91.20
56478;DHT22;42382;53.210;5.772;2022-08-01T00:32:20;18.40;91.10
56478;DHT22;42382;53.210;5.772;2022-08-01T00:34:46;18.40;91.20
56478;DHT22;42382;53.210;5.772;2022-08-01T00:37:11;18.30;91.10
56478;DHT22;42382;53.210;5.772;2022-08-01T00:39:37;18.40;91.20
56478;DHT22;42382;53.210;5.772;2022-08-01T00:42:07;18.40;91.20
56478;DHT22;42382;53.210;5.772;2022-08-01T00:44:33;18.40;91.20
56478;DHT22;42382;53.210;5.772;2022-08-01T00:46:59;18.40;91.20
56478;DHT22;42382;53.210;5.772;2022-08-01T00:49:24;18.30;91.20
56478;DHT22;42382;53.210;5.772;2022-08-01T00:51:50;18.30;91.20
56478;DHT22;42382;53.210;5.772;2022-08-01T00:54:16;18.40;91.20
56478;DHT22;42382;53.210;5.772;2022-08-01T00:56:41;18.30;91.20
56478;DHT22;42382;53.210;5.772;2022-08-01T00:59:07;18.30;91.10
56478;DHT22;42382;53.210;5.772;2022-08-01T01:01:33;18.30;91.20
56478;DHT22;42382;53.210;5.772;2022-08-01T01:04:00;18.30;91.10
56478;DHT22;42382;53.210;5.772;2022-08-01T01:06:47;18.30;91.10
56478;DHT22;42382;53.210;5.772;2022-08-01T01:09:37;18.30;90.90
56478;DHT22;42382;53.210;5.772;2022-08-01T01:12:36;18.30;90.90
56478;DHT22;42382;53.210;5.772;2022-08-01T01:15:08;18.30;90.90
56478;DHT22;42382;53.210;5.772;2022-08-01T01:17:51;18.30;91.10
56478;DHT22;42382;53.210;5.772;2022-08-01T01:20:21;18.30;91.00
56478;DHT22;42382;53.210;5.772;2022-08-01T01:31:13;18.20;90.90
56478;DHT22;42382;53.210;5.772;2022-08-01T01:33:41;18.20;90.80
56478;DHT22;42382;53.210;5.772;2022-08-01T01:36:09;18.10;90.90
56478;DHT22;42382;53.210;5.772;2022-08-01T01:38:42;18.00;90.80
56478;DHT22;42382;53.210;5.772;2022-08-01T01:41:09;18.10;90.80
56478;DHT22;42382;53.210;5.772;2022-08-01T01:43:37;18.00;90.80
56478;DHT22;42382;53.210;5.772;2022-08-01T01:46:04;18.10;90.80
56478;DHT22;42382;53.210;5.772;2022-08-01T01:48:31;18.10;90.80
56478;DHT22;42382;53.210;5.772;2022-08-01T01:50:59;18.00;90.70
56478;DHT22;42382;53.210;5.772;2022-08-01T01:53:29;18.00;90.80
56478;DHT22;42382;53.210;5.772;2022-08-01T01:55:58;18.00;90.60
56478;DHT22;42382;53.210;5.772;2022-08-01T01:58:27;17.90;90.60
56478;DHT22;42382;53.210;5.772;2022-08-01T02:00:55;17.90;90.80
56478;DHT22;42382;53.210;5.772;2022-08-01T02:03:22;17.80;90.80
56478;DHT22;42382;53.210;5.772;2022-08-01T02:05:51;17.90;90.80
56478;DHT22;42382;53.210;5.772;2022-08-01T02:08:18;17.80;90.90
56478;DHT22;42382;53.210;5.772;2022-08-01T02:10:45;17.80;90.90
56478;DHT22;42382;53.210;5.772;2022-08-01T02:13:36;17.80;91.00
56478;DHT22;42382;53.210;5.772;2022-08-01T02:16:03;17.80;91.00
56478;DHT22;42382;53.210;5.772;2022-08-01T02:18:30;17.80;91.00
56478;DHT22;42382;53.210;5.772;2022-08-01T02:21:00;17.80;91.00
56478;DHT22;42382;53.210;5.772;2022-08-01T02:23:31;17.90;91.00
56478;DHT22;42382;53.210;5.772;2022-08-01T02:25:58;17.70;91.00
56478;DHT22;42382;53.210;5.772;2022-08-01T02:28:30;17.80;90.90
56478;DHT22;42382;53.210;5.772;2022-08-01T02:31:02;17.70;90.90
56478;DHT22;42382;53.210;5.772;2022-08-01T02:33:39;17.80;90.70
56478;DHT22;42382;53.210;5.772;2022-08-01T02:36:07;17.80;90.60
56478;DHT22;42382;53.210;5.772;2022-08-01T02:38:41;17.80;90.60
56478;DHT22;42382;53.210;5.772;2022-08-01T02:41:10;17.70;90.50
56478;DHT22;42382;53.210;5.772;2022-08-01T02:43:40;17.70;90.40
56478;DHT22;42382;53.210;5.772;2022-08-01T02:46:09;17.70;90.50
56478;DHT22;42382;53.210;5.772;2022-08-01T02:48:38;17.70;90.40
56478;DHT22;42382;53.210;5.772;2022-08-01T02:51:06;17.60;90.40
56478;DHT22;42382;53.210;5.772;2022-08-01T02:53:34;17.60;90.40
56478;DHT22;42382;53.210;5.772;2022-08-01T02:56:04;17.70;90.30
56478;DHT22;42382;53.210;5.772;2022-08-01T02:58:30;17.60;90.20
56478;DHT22;42382;53.210;5.772;2022-08-01T03:00:57;17.60;90.10
56478;DHT22;42382;53.210;5.772;2022-08-01T03:03:24;17.60;90.10
56478;DHT22;42382;53.210;5.772;2022-08-01T03:05:50;17.60;90.10
56478;DHT22;42382;53.210;5.772;2022-08-01T03:08:16;17.50;90.10
56478;DHT22;42382;53.210;5.772;2022-08-01T03:10:45;17.60;90.10
56478;DHT22;42382;53.210;5.772;2022-08-01T03:13:13;17.60;90.00
56478;DHT22;42382;53.210;5.772;2022-08-01T03:15:42;17.60;89.90
56478;DHT22;42382;53.210;5.772;2022-08-01T03:18:10;17.50;89.80
56478;DHT22;42382;53.210;5.772;2022-08-01T03:20:37;17.50;89.80
56478;DHT22;42382;53.210;5.772;2022-08-01T03:23:06;17.50;89.80
56478;DHT22;42382;53.210;5.772;2022-08-01T03:25:34;17.60;89.80
56478;DHT22;42382;53.210;5.772;2022-08-01T03:28:03;17.60;89.60
56478;DHT22;42382;53.210;5.772;2022-08-01T03:30:31;17.50;89.50
56478;DHT22;42382;53.210;5.772;2022-08-01T03:32:57;17.50;89.30
56478;DHT22;42382;53.210;5.772;2022-08-01T03:35:26;17.40;89.40
56478;DHT22;42382;53.210;5.772;2022-08-01T03:37:55;17.40;89.50
56478;DHT22;42382;53.210;5.772;2022-08-01T03:40:37;17.40;89.50
56478;DHT22;42382;53.210;5.772;2022-08-01T03:43:07;17.40;89.30
56478;DHT22;42382;53.210;5.772;2022-08-01T03:45:36;17.40;89.40
56478;DHT22;42382;53.210;5.772;2022-08-01T03:48:08;17.40;89.20
56478;DHT22;42382;53.210;5.772;2022-08-01T03:50:34;17.30;89.00
56478;DHT22;42382;53.210;5.772;2022-08-01T03:53:02;17.30;88.80
56478;DHT22;42382;53.210;5.772;2022-08-01T03:55:31;17.30;88.80
56478;DHT22;42382;53.210;5.772;2022-08-01T03:57:57;17.30;88.80
56478;DHT22;42382;53.210;5.772;2022-08-01T04:00:24;17.20;88.60
56478;DHT22;42382;53.210;5.772;2022-08-01T04:02:51;17.30;88.60
56478;DHT22;42382;53.210;5.772;2022-08-01T04:05:17;17.20;88.60
56478;DHT22;42382;53.210;5.772;2022-08-01T04:07:49;17.20;88.60
56478;DHT22;42382;53.210;5.772;2022-08-01T04:10:22;17.30;88.60
56478;DHT22;42382;53.210;5.772;2022-08-01T04:12:48;17.30;88.50
56478;DHT22;42382;53.210;5.772;2022-08-01T04:15:14;17.20;88.40
56478;DHT22;42382;53.210;5.772;2022-08-01T04:17:39;17.20;88.30
56478;DHT22;42382;53.210;5.772;2022-08-01T04:20:05;17.30;88.10
56478;DHT22;42382;53.210;5.772;2022-08-01T04:22:31;17.30;88.10
56478;DHT22;42382;53.210;5.772;2022-08-01T04:24:58;17.20;88.10
56478;DHT22;42382;53.210;5.772;2022-08-01T04:27:37;17.20;88.00
56478;DHT22;42382;53.210;5.772;2022-08-01T04:30:05;17.30;87.80
56478;DHT22;42382;53.210;5.772;2022-08-01T04:32:33;17.30;87.90
56478;DHT22;42382;53.210;5.772;2022-08-01T04:35:02;17.30;87.80
56478;DHT22;42382;53.210;5.772;2022-08-01T04:37:30;17.20;87.70
56478;DHT22;42382;53.210;5.772;2022-08-01T04:39:56;17.30;87.70
56478;DHT22;42382;53.210;5.772;2022-08-01T04:42:23;17.20;87.70
56478;DHT22;42382;53.210;5.772;2022-08-01T04:44:48;17.30;87.70
56478;DHT22;42382;53.210;5.772;2022-08-01T04:47:14;17.30;87.60
56478;DHT22;42382;53.210;5.772;2022-08-01T04:49:40;17.30;87.60
56478;DHT22;42382;53.210;5.772;2022-08-01T04:52:06;17.30;87.50
56478;DHT22;42382;53.210;5.772;2022-08-01T04:54:35;17.30;87.40
56478;DHT22;42382;53.210;5.772;2022-08-01T04:57:04;17.30;87.40
56478;DHT22;42382;53.210;5.772;2022-08-01T04:59:32;17.30;87.30
56478;DHT22;42382;53.210;5.772;2022-08-01T05:02:11;17.30;87.20
56478;DHT22;42382;53.210;5.772;2022-08-01T05:04:38;17.30;87.10
56478;DHT22;42382;53.210;5.772;2022-08-01T05:07:06;17.20;87.00
56478;DHT22;42382;53.210;5.772;2022-08-01T05:09:32;17.20;87.00
56478;DHT22;42382;53.210;5.772;2022-08-01T05:12:02;17.20;86.90
56478;DHT22;42382;53.210;5.772;2022-08-01T05:14:29;17.20;86.80
56478;DHT22;42382;53.210;5.772;2022-08-01T05:16:58;17.20;86.80
56478;DHT22;42382;53.210;5.772;2022-08-01T05:19:24;17.20;86.70
56478;DHT22;42382;53.210;5.772;2022-08-01T05:21:50;17.20;86.70
56478;DHT22;42382;53.210;5.772;2022-08-01T05:24:15;17.20;86.60
56478;DHT22;42382;53.210;5.772;2022-08-01T05:26:41;17.20;86.50
56478;DHT22;42382;53.210;5.772;2022-08-01T05:29:06;17.30;86.40
56478;DHT22;42382;53.210;5.772;2022-08-01T05:31:33;17.30;86.30
56478;DHT22;42382;53.210;5.772;2022-08-01T05:34:02;17.30;86.30
56478;DHT22;42382;53.210;5.772;2022-08-01T05:36:28;17.30;86.20
56478;DHT22;42382;53.210;5.772;2022-08-01T05:38:54;17.30;86.00
56478;DHT22;42382;53.210;5.772;2022-08-01T05:41:19;17.30;86.00
56478;DHT22;42382;53.210;5.772;2022-08-01T05:43:45;17.40;85.90
56478;DHT22;42382;53.210;5.772;2022-08-01T05:46:10;17.40;85.70
56478;DHT22;42382;53.210;5.772;2022-08-01T05:48:36;17.40;85.60
56478;DHT22;42382;53.210;5.772;2022-08-01T05:51:02;17.50;85.40
56478;DHT22;42382;53.210;5.772;2022-08-01T05:53:28;17.60;85.20
56478;DHT22;42382;53.210;5.772;2022-08-01T05:55:54;17.60;85.20
56478;DHT22;42382;53.210;5.772;2022-08-01T05:58:20;17.70;84.90
56478;DHT22;42382;53.210;5.772;2022-08-01T06:00:46;17.80;84.80
56478;DHT22;42382;53.210;5.772;2022-08-01T06:03:11;17.80;84.70
56478;DHT22;42382;53.210;5.772;2022-08-01T06:05:37;17.90;84.60
56478;DHT22;42382;53.210;5.772;2022-08-01T06:08:03;18.00;84.40
56478;DHT22;42382;53.210;5.772;2022-08-01T06:10:29;17.90;83.70
56478;DHT22;42382;53.210;5.772;2022-08-01T06:12:54;18.00;83.50
56478;DHT22;42382;53.210;5.772;2022-08-01T06:15:20;18.00;83.10
56478;DHT22;42382;53.210;5.772;2022-08-01T06:17:46;18.00;82.30
56478;DHT22;42382;53.210;5.772;2022-08-01T06:20:12;18.00;82.40
56478;DHT22;42382;53.210;5.772;2022-08-01T06:22:37;18.00;82.00
56478;DHT22;42382;53.210;5.772;2022-08-01T06:25:03;18.00;81.40
56478;DHT22;42382;53.210;5.772;2022-08-01T06:27:29;18.00;81.40
56478;DHT22;42382;53.210;5.772;2022-08-01T06:29:54;18.00;81.00
56478;DHT22;42382;53.210;5.772;2022-08-01T06:32:22;17.90;81.20
56478;DHT22;42382;53.210;5.772;2022-08-01T06:34:51;17.90;80.80
56478;DHT22;42382;53.210;5.772;2022-08-01T06:37:17;17.80;80.70
56478;DHT22;42382;53.210;5.772;2022-08-01T06:39:43;17.70;80.50
56478;DHT22;42382;53.210;5.772;2022-08-01T06:42:08;17.60;80.30
56478;DHT22;42382;53.210;5.772;2022-08-01T06:44:35;17.50;80.20
56478;DHT22;42382;53.210;5.772;2022-08-01T06:47:01;17.50;80.70
56478;DHT22;42382;53.210;5.772;2022-08-01T06:49:27;17.60;80.60
56478;DHT22;42382;53.210;5.772;2022-08-01T06:51:52;17.60;80.20
56478;DHT22;42382;53.210;5.772;2022-08-01T06:54:18;17.80;79.90
56478;DHT22;42382;53.210;5.772;2022-08-01T06:56:44;17.80;79.70
56478;DHT22;42382;53.210;5.772;2022-08-01T06:59:09;17.80;79.10
56478;DHT22;42382;53.210;5.772;2022-08-01T07:01:35;17.80;79.00
56478;DHT22;42382;53.210;5.772;2022-08-01T07:04:01;17.90;79.20
56478;DHT22;42382;53.210;5.772;2022-08-01T07:06:27;17.90;79.10
56478;DHT22;42382;53.210;5.772;2022-08-01T07:08:53;18.00;78.90
56478;DHT22;42382;53.210;5.772;2022-08-01T07:11:20;17.90;77.80
56478;DHT22;42382;53.210;5.772;2022-08-01T07:13:45;18.00;78.10
56478;DHT22;42382;53.210;5.772;2022-08-01T07:16:15;18.00;77.50
56478;DHT22;42382;53.210;5.772;2022-08-01T07:18:41;18.10;77.70
56478;DHT22;42382;53.210;5.772;2022-08-01T07:21:07;18.10;78.30
56478;DHT22;42382;53.210;5.772;2022-08-01T07:23:33;18.30;79.10
56478;DHT22;42382;53.210;5.772;2022-08-01T07:25:59;19.00;78.10
56478;DHT22;42382;53.210;5.772;2022-08-01T07:28:27;19.90;76.00
56478;DHT22;42382;53.210;5.772;2022-08-01T07:30:53;20.80;74.00
56478;DHT22;42382;53.210;5.772;2022-08-01T07:33:19;21.60;70.60
56478;DHT22;42382;53.210;5.772;2022-08-01T07:35:44;22.30;68.90
56478;DHT22;42382;53.210;5.772;2022-08-01T07:38:10;22.90;66.30
56478;DHT22;42382;53.210;5.772;2022-08-01T07:40:35;23.40;63.30
56478;DHT22;42382;53.210;5.772;2022-08-01T07:43:01;23.80;61.40
56478;DHT22;42382;53.210;5.772;2022-08-01T07:45:27;24.00;60.50
56478;DHT22;42382;53.210;5.772;2022-08-01T07:47:52;24.30;60.60
56478;DHT22;42382;53.210;5.772;2022-08-01T07:50:18;24.40;58.80
56478;DHT22;42382;53.210;5.772;2022-08-01T07:52:44;24.20;56.50
56478;DHT22;42382;53.210;5.772;2022-08-01T07:55:11;23.70;58.20
56478;DHT22;42382;53.210;5.772;2022-08-01T07:57:37;23.80;57.50
56478;DHT22;42382;53.210;5.772;2022-08-01T08:00:04;24.20;57.40
56478;DHT22;42382;53.210;5.772;2022-08-01T08:02:31;24.80;55.70
56478;DHT22;42382;53.210;5.772;2022-08-01T08:04:57;25.10;54.60
56478;DHT22;42382;53.210;5.772;2022-08-01T08:07:22;25.40;53.30
56478;DHT22;42382;53.210;5.772;2022-08-01T08:09:48;25.30;51.00
56478;DHT22;42382;53.210;5.772;2022-08-01T08:12:14;25.10;51.10
56478;DHT22;42382;53.210;5.772;2022-08-01T08:14:39;25.20;51.50
56478;DHT22;42382;53.210;5.772;2022-08-01T08:17:05;25.30;51.80
56478;DHT22;42382;53.210;5.772;2022-08-01T08:19:31;25.30;51.60
56478;DHT22;42382;53.210;5.772;2022-08-01T08:21:59;24.90;52.20
56478;DHT22;42382;53.210;5.772;2022-08-01T08:24:25;25.00;52.20
56478;DHT22;42382;53.210;5.772;2022-08-01T08:27:02;25.20;51.10
56478;DHT22;42382;53.210;5.772;2022-08-01T08:29:29;25.30;51.00
56478;DHT22;42382;53.210;5.772;2022-08-01T08:31:57;25.30;50.00
56478;DHT22;42382;53.210;5.772;2022-08-01T08:34:24;25.50;51.10
56478;DHT22;42382;53.210;5.772;2022-08-01T08:36:49;25.80;49.60
56478;DHT22;42382;53.210;5.772;2022-08-01T08:39:16;25.80;49.40
56478;DHT22;42382;53.210;5.772;2022-08-01T08:41:42;25.90;49.60
56478;DHT22;42382;53.210;5.772;2022-08-01T08:44:08;25.80;49.20
56478;DHT22;42382;53.210;5.772;2022-08-01T08:46:45;25.70;50.00
56478;DHT22;42382;53.210;5.772;2022-08-01T08:49:15;25.90;48.90
56478;DHT22;42382;53.210;5.772;2022-08-01T08:51:41;26.00;48.70
56478;DHT22;42382;53.210;5.772;2022-08-01T08:54:11;26.20;48.60
56478;DHT22;42382;53.210;5.772;2022-08-01T08:56:38;26.30;48.00
56478;DHT22;42382;53.210;5.772;2022-08-01T08:59:04;26.00;47.80
56478;DHT22;42382;53.210;5.772;2022-08-01T09:01:31;26.10;48.40
56478;DHT22;42382;53.210;5.772;2022-08-01T09:04:02;26.20;47.50
56478;DHT22;42382;53.210;5.772;2022-08-01T09:06:28;26.20;46.90
56478;DHT22;42382;53.210;5.772;2022-08-01T09:08:55;26.40;47.10
56478;DHT22;42382;53.210;5.772;2022-08-01T09:11:21;26.70;46.70
56478;DHT22;42382;53.210;5.772;2022-08-01T09:14:06;26.80;45.60
56478;DHT22;42382;53.210;5.772;2022-08-01T09:16:33;26.90;44.50
56478;DHT22;42382;53.210;5.772;2022-08-01T09:19:14;27.10;45.40
56478;DHT22;42382;53.210;5.772;2022-08-01T09:21:59;27.00;44.10
56478;DHT22;42382;53.210;5.772;2022-08-01T09:24:26;26.80;41.60
56478;DHT22;42382;53.210;5.772;2022-08-01T09:26:53;26.40;44.00
56478;DHT22;42382;53.210;5.772;2022-08-01T09:29:30;26.20;46.00
56478;DHT22;42382;53.210;5.772;2022-08-01T09:31:57;26.30;45.70
56478;DHT22;42382;53.210;5.772;2022-08-01T09:34:28;26.20;45.00
56478;DHT22;42382;53.210;5.772;2022-08-01T09:37:00;26.00;44.00
56478;DHT22;42382;53.210;5.772;2022-08-01T09:39:30;25.80;44.70
56478;DHT22;42382;53.210;5.772;2022-08-01T09:41:58;25.60;44.70
56478;DHT22;42382;53.210;5.772;2022-08-01T09:44:41;25.30;45.20
56478;DHT22;42382;53.210;5.772;2022-08-01T09:47:07;25.40;43.70
56478;DHT22;42382;53.210;5.772;2022-08-01T09:49:35;25.40;44.00
56478;DHT22;42382;53.210;5.772;2022-08-01T09:52:19;25.40;45.60
56478;DHT22;42382;53.210;5.772;2022-08-01T09:54:57;25.70;45.90
56478;DHT22;42382;53.210;5.772;2022-08-01T09:57:23;25.90;45.70
56478;DHT22;42382;53.210;5.772;2022-08-01T09:59:51;26.20;44.60
56478;DHT22;42382;53.210;5.772;2022-08-01T10:02:37;26.40;42.90
56478;DHT22;42382;53.210;5.772;2022-08-01T10:05:06;26.50;42.40
56478;DHT22;42382;53.210;5.772;2022-08-01T10:07:32;26.70;42.70
56478;DHT22;42382;53.210;5.772;2022-08-01T10:10:14;26.60;42.60
56478;DHT22;42382;53.210;5.772;2022-08-01T10:12:41;26.60;42.30
56478;DHT22;42382;53.210;5.772;2022-08-01T10:15:08;26.50;42.60
56478;DHT22;42382;53.210;5.772;2022-08-01T10:17:39;26.40;43.10
56478;DHT22;42382;53.210;5.772;2022-08-01T10:20:06;26.50;43.50
56478;DHT22;42382;53.210;5.772;2022-08-01T10:22:32;26.40;42.50
56478;DHT22;42382;53.210;5.772;2022-08-01T10:25:02;26.60;42.70
56478;DHT22;42382;53.210;5.772;2022-08-01T10:27:29;26.70;41.40
56478;DHT22;42382;53.210;5.772;2022-08-01T10:29:59;26.60;42.90
56478;DHT22;42382;53.210;5.772;2022-08-01T10:32:37;26.60;41.70
56478;DHT22;42382;53.210;5.772;2022-08-01T10:35:04;26.40;41.60
56478;DHT22;42382;53.210;5.772;2022-08-01T10:37:30;26.30;42.30
56478;DHT22;42382;53.210;5.772;2022-08-01T10:39:57;26.30;41.70
56478;DHT22;42382;53.210;5.772;2022-08-01T10:42:23;26.30;42.20
56478;DHT22;42382;53.210;5.772;2022-08-01T10:44:49;26.40;39.90
56478;DHT22;42382;53.210;5.772;2022-08-01T10:47:23;26.40;40.80
56478;DHT22;42382;53.210;5.772;2022-08-01T10:49:56;26.50;41.70
56478;DHT22;42382;53.210;5.772;2022-08-01T10:52:24;26.60;41.50
56478;DHT22;42382;53.210;5.772;2022-08-01T10:55:07;26.50;41.50
56478;DHT22;42382;53.210;5.772;2022-08-01T10:57:47;26.50;41.80
56478;DHT22;42382;53.210;5.772;2022-08-01T11:00:20;26.60;40.70
56478;DHT22;42382;53.210;5.772;2022-08-01T11:03:01;26.50;38.50
56478;DHT22;42382;53.210;5.772;2022-08-01T11:05:31;26.20;39.20
56478;DHT22;42382;53.210;5.772;2022-08-01T11:08:01;26.00;41.00
56478;DHT22;42382;53.210;5.772;2022-08-01T11:10:38;26.00;40.90
56478;DHT22;42382;53.210;5.772;2022-08-01T11:13:05;26.00;41.00
56478;DHT22;42382;53.210;5.772;2022-08-01T11:15:34;26.00;41.20
56478;DHT22;42382;53.210;5.772;2022-08-01T11:18:02;26.10;41.20
56478;DHT22;42382;53.210;5.772;2022-08-01T11:20:35;26.00;41.10
56478;DHT22;42382;53.210;5.772;2022-08-01T11:30:40;26.00;41.50
56478;DHT22;42382;53.210;5.772;2022-08-01T11:33:06;26.10;40.50
56478;DHT22;42382;53.210;5.772;2022-08-01T11:35:32;26.00;41.40
56478;DHT22;42382;53.210;5.772;2022-08-01T11:38:26;26.10;41.60
56478;DHT22;42382;53.210;5.772;2022-08-01T11:41:23;26.30;40.10
56478;DHT22;42382;53.210;5.772;2022-08-01T11:52:08;26.30;41.10
56478;DHT22;42382;53.210;5.772;2022-08-01T11:54:37;26.20;40.20
56478;DHT22;42382;53.210;5.772;2022-08-01T11:57:09;26.00;40.30
56478;DHT22;42382;53.210;5.772;2022-08-01T11:59:37;25.90;41.60
56478;DHT22;42382;53.210;5.772;2022-08-01T12:02:04;25.80;40.40
56478;DHT22;42382;53.210;5.772;2022-08-01T12:05:00;25.60;41.40
56478;DHT22;42382;53.210;5.772;2022-08-01T12:07:28;25.70;40.30
56478;DHT22;42382;53.210;5.772;2022-08-01T12:10:08;25.60;42.10
56478;DHT22;42382;53.210;5.772;2022-08-01T12:12:36;25.70;42.10
56478;DHT22;42382;53.210;5.772;2022-08-01T12:15:05;25.80;41.50
56478;DHT22;42382;53.210;5.772;2022-08-01T12:17:37;25.60;40.20
56478;DHT22;42382;53.210;5.772;2022-08-01T12:20:06;25.10;40.10
56478;DHT22;42382;53.210;5.772;2022-08-01T12:22:32;24.70;41.00
56478;DHT22;42382;53.210;5.772;2022-08-01T12:25:17;24.40;42.00
56478;DHT22;42382;53.210;5.772;2022-08-01T12:27:45;24.40;42.50
56478;DHT22;42382;53.210;5.772;2022-08-01T12:30:18;24.20;43.20
56478;DHT22;42382;53.210;5.772;2022-08-01T12:32:46;24.10;42.90
56478;DHT22;42382;53.210;5.772;2022-08-01T12:35:14;24.00;44.00
56478;DHT22;42382;53.210;5.772;2022-08-01T12:37:52;23.80;43.60
56478;DHT22;42382;53.210;5.772;2022-08-01T12:40:21;23.90;44.30
56478;DHT22;42382;53.210;5.772;2022-08-01T12:42:53;24.10;44.50
56478;DHT22;42382;53.210;5.772;2022-08-01T12:45:21;24.20;44.20
56478;DHT22;42382;53.210;5.772;2022-08-01T12:47:49;24.20;44.40
56478;DHT22;42382;53.210;5.772;2022-08-01T12:50:18;24.30;44.20
56478;DHT22;42382;53.210;5.772;2022-08-01T12:52:45;24.30;43.10
56478;DHT22;42382;53.210;5.772;2022-08-01T12:55:13;24.30;42.70
56478;DHT22;42382;53.210;5.772;2022-08-01T12:57:42;24.30;43.50
56478;DHT22;42382;53.210;5.772;2022-08-01T13:00:11;24.30;42.30
56478;DHT22;42382;53.210;5.772;2022-08-01T13:02:37;24.10;43.10
56478;DHT22;42382;53.210;5.772;2022-08-01T13:05:04;24.20;43.10
56478;DHT22;42382;53.210;5.772;2022-08-01T13:07:44;24.30;42.70
56478;DHT22;42382;53.210;5.772;2022-08-01T13:10:11;24.30;43.30
56478;DHT22;42382;53.210;5.772;2022-08-01T13:12:39;24.20;44.80
56478;DHT22;42382;53.210;5.772;2022-08-01T13:15:21;24.30;43.90
56478;DHT22;42382;53.210;5.772;2022-08-01T13:17:50;24.30;43.70
56478;DHT22;42382;53.210;5.772;2022-08-01T13:20:28;24.30;44.90
56478;DHT22;42382;53.210;5.772;2022-08-01T13:22:54;24.20;44.30
56478;DHT22;42382;53.210;5.772;2022-08-01T13:25:20;24.20;45.00
56478;DHT22;42382;53.210;5.772;2022-08-01T13:27:45;24.20;45.00
56478;DHT22;42382;53.210;5.772;2022-08-01T13:30:16;24.20;45.10
56478;DHT22;42382;53.210;5.772;2022-08-01T13:32:43;24.20;45.20
56478;DHT22;42382;53.210;5.772;2022-08-01T13:35:11;24.10;45.10
56478;DHT22;42382;53.210;5.772;2022-08-01T13:37:41;23.90;44.80
56478;DHT22;42382;53.210;5.772;2022-08-01T13:40:08;23.90;45.70
56478;DHT22;42382;53.210;5.772;2022-08-01T13:42:34;23.80;45.30
56478;DHT22;42382;53.210;5.772;2022-08-01T13:45:04;23.90;45.40
56478;DHT22;42382;53.210;5.772;2022-08-01T13:47:33;23.80;45.80
56478;DHT22;42382;53.210;5.772;2022-08-01T13:49:59;23.80;46.00
56478;DHT22;42382;53.210;5.772;2022-08-01T13:52:27;23.80;45.50
56478;DHT22;42382;53.210;5.772;2022-08-01T13:54:53;23.80;44.60
56478;DHT22;42382;53.210;5.772;2022-08-01T13:57:19;23.80;44.90
56478;DHT22;42382;53.210;5.772;2022-08-01T13:59:44;23.80;44.40
56478;DHT22;42382;53.210;5.772;2022-08-01T14:02:10;23.80;43.60
56478;DHT22;42382;53.210;5.772;2022-08-01T14:04:35;23.70;43.50
56478;DHT22;42382;53.210;5.772;2022-08-01T14:07:01;23.70;44.70
56478;DHT22;42382;53.210;5.772;2022-08-01T14:09:27;23.60;45.20
56478;DHT22;42382;53.210;5.772;2022-08-01T14:11:52;23.70;46.20
56478;DHT22;42382;53.210;5.772;2022-08-01T14:14:19;23.60;45.70
56478;DHT22;42382;53.210;5.772;2022-08-01T14:16:44;23.70;45.40
56478;DHT22;42382;53.210;5.772;2022-08-01T14:19:10;23.70;45.20
56478;DHT22;42382;53.210;5.772;2022-08-01T14:21:41;23.70;44.10
56478;DHT22;42382;53.210;5.772;2022-08-01T14:24:07;23.60;43.10
56478;DHT22;42382;53.210;5.772;2022-08-01T14:26:33;23.30;44.10
56478;DHT22;42382;53.210;5.772;2022-08-01T14:28:59;23.20;44.80
56478;DHT22;42382;53.210;5.772;2022-08-01T14:31:24;23.30;45.20
56478;DHT22;42382;53.210;5.772;2022-08-01T14:33:50;23.40;45.30
56478;DHT22;42382;53.210;5.772;2022-08-01T14:36:15;23.50;44.90
56478;DHT22;42382;53.210;5.772;2022-08-01T14:38:41;23.60;45.20
56478;DHT22;42382;53.210;5.772;2022-08-01T14:41:06;23.50;45.10
56478;DHT22;42382;53.210;5.772;2022-08-01T14:43:32;23.60;45.10
56478;DHT22;42382;53.210;5.772;2022-08-01T14:45:58;23.60;45.00
56478;DHT22;42382;53.210;5.772;2022-08-01T14:48:24;23.80;45.40
56478;DHT22;42382;53.210;5.772;2022-08-01T14:50:50;23.80;44.10
56478;DHT22;42382;53.210;5.772;2022-08-01T14:53:15;23.60;44.80
56478;DHT22;42382;53.210;5.772;2022-08-01T14:55:41;23.60;45.30
56478;DHT22;42382;53.210;5.772;2022-08-01T14:58:07;23.60;44.90
56478;DHT22;42382;53.210;5.772;2022-08-01T15:00:32;23.60;45.50
56478;DHT22;42382;53.210;5.772;2022-08-01T15:02:58;23.60;43.70
56478;DHT22;42382;53.210;5.772;2022-08-01T15:05:23;23.50;42.80
56478;DHT22;42382;53.210;5.772;2022-08-01T15:07:49;23.40;42.50
56478;DHT22;42382;53.210;5.772;2022-08-01T15:10:15;23.30;41.60
56478;DHT22;42382;53.210;5.772;2022-08-01T15:12:41;23.30;43.10
56478;DHT22;42382;53.210;5.772;2022-08-01T15:15:07;23.20;44.80
56478;DHT22;42382;53.210;5.772;2022-08-01T15:17:33;23.30;43.80
56478;DHT22;42382;53.210;5.772;2022-08-01T15:20:00;23.20;44.30
56478;DHT22;42382;53.210;5.772;2022-08-01T15:22:27;23.20;44.70
56478;DHT22;42382;53.210;5.772;2022-08-01T15:24:54;23.20;44.60
56478;DHT22;42382;53.210;5.772;2022-08-01T15:27:20;23.20;45.00
56478;DHT22;42382;53.210;5.772;2022-08-01T15:29:47;23.20;45.20
56478;DHT22;42382;53.210;5.772;2022-08-01T15:32:13;23.30;45.00
56478;DHT22;42382;53.210;5.772;2022-08-01T15:34:40;23.40;45.50
56478;DHT22;42382;53.210;5.772;2022-08-01T15:37:06;23.50;45.60
56478;DHT22;42382;53.210;5.772;2022-08-01T15:39:34;23.60;45.00
56478;DHT22;42382;53.210;5.772;2022-08-01T15:42:04;23.60;45.40
56478;DHT22;42382;53.210;5.772;2022-08-01T15:44:33;23.50;45.00
56478;DHT22;42382;53.210;5.772;2022-08-01T15:46:59;23.40;44.90
56478;DHT22;42382;53.210;5.772;2022-08-01T15:49:25;23.40;44.10
56478;DHT22;42382;53.210;5.772;2022-08-01T15:51:51;23.30;44.70
56478;DHT22;42382;53.210;5.772;2022-08-01T15:54:17;23.40;45.40
56478;DHT22;42382;53.210;5.772;2022-08-01T15:56:43;23.30;45.60
56478;DHT22;42382;53.210;5.772;2022-08-01T15:59:09;23.30;45.60
56478;DHT22;42382;53.210;5.772;2022-08-01T16:01:35;23.10;44.60